Time;durP1;ratioP1;P1;durP2;ratioP2;P2;SDS_P1;SDS_P2;PMS_P1;PMS_P2;Temp;Humidity;BMP_temperature;BMP_pressure;BME280_temperature;BME280_humidity;BME280_pressure;Samples;Min_cycle;Max_cycle;Signal;HPM_P1;HPM_P2
2022/10/25 00:02:37;;;;;;;223.27;12.00;;;10.50;99.90;;;;;;21080515;28;20035;-76
2022/10/25 00:12:42;;;;;;;38.60;6.13;;;10.20;99.90;;;;;;21079539;28;20039;-75
2022/10/25 00:22:43;;;;;;;12.50;5.25;;;9.90;99.90;;;;;;21079091;28;20398;-76
2022/10/25 00:32:44;;;;;;;19.80;6.63;;;10.00;99.90;;;;;;21078194;28;20119;-76
2022/10/25 00:42:45;;;;;;;55.80;5.63;;;9.80;99.90;;;;;;21077549;28;20490;-76
2022/10/25 00:52:50;;;;;;;9.53;3.43;;;9.70;99.90;;;;;;21076622;28;20055;-76
2022/10/25 01:02:52;;;;;;;46.25;3.40;;;9.60;99.90;;;;;;21075998;28;20039;-76
2022/10/25 01:12:53;;;;;;;24.17;2.65;;;9.40;99.90;;;;;;21075289;28;20106;-76
2022/10/25 01:23:36;;;;;;;240.07;13.90;;;9.30;99.90;;;;;;21074030;28;20583;-76
2022/10/25 01:33:57;;;;;;;71.43;10.15;;;9.70;99.90;;;;;;21062912;28;20579;-76
2022/10/25 01:44:00;;;;;;;36.88;8.57;;;10.10;99.90;;;;;;21073896;28;20093;-76
2022/10/25 01:54:01;;;;;;;96.45;12.40;;;10.10;99.90;;;;;;21073518;28;20024;-76
2022/10/25 02:04:12;;;;;;;44.67;10.13;;;10.20;99.90;;;;;;21073050;28;20032;-77
2022/10/25 02:14:28;;;;;;;49.40;11.87;;;10.30;99.90;;;;;;21048023;28;20045;-76
2022/10/25 02:24:31;;;;;;;35.95;10.15;;;10.40;99.90;;;;;;20932702;28;20035;-76
2022/10/25 02:34:32;;;;;;;42.47;11.10;;;10.40;99.90;;;;;;20911133;28;20032;-77
2022/10/25 02:44:32;;;;;;;32.28;9.68;;;10.50;99.90;;;;;;20920701;28;20025;-77
2022/10/25 02:54:33;;;;;;;41.47;10.70;;;10.40;99.90;;;;;;20902382;28;20039;-76
2022/10/25 03:04:34;;;;;;;57.87;14.17;;;10.40;99.90;;;;;;20901170;28;20031;-76
2022/10/25 03:14:35;;;;;;;48.73;11.43;;;10.50;99.90;;;;;;20918996;28;20075;-76
2022/10/25 03:24:36;;;;;;;38.87;11.77;;;10.40;99.90;;;;;;20919567;28;20021;-76
2022/10/25 03:34:36;;;;;;;44.10;11.97;;;10.50;99.90;;;;;;20916922;28;20032;-76
2022/10/25 03:44:37;;;;;;;34.47;10.30;;;10.50;99.90;;;;;;20914966;28;20036;-76
2022/10/25 03:54:38;;;;;;;43.50;11.00;;;10.50;99.90;;;;;;20897153;28;20436;-76
2022/10/25 04:04:39;;;;;;;37.83;9.83;;;10.60;99.90;;;;;;20921278;28;20029;-77
2022/10/25 04:14:40;;;;;;;22.27;7.50;;;10.70;99.90;;;;;;20920690;28;20032;-77
2022/10/25 04:24:40;;;;;;;22.13;8.13;;;10.70;99.90;;;;;;20922469;28;20049;-78
2022/10/25 04:34:41;;;;;;;19.07;8.03;;;10.80;99.90;;;;;;20920148;28;20025;-77
2022/10/25 04:44:42;;;;;;;29.97;8.77;;;10.80;99.90;;;;;;20911521;28;20047;-76
2022/10/25 04:54:43;;;;;;;39.60;12.23;;;10.80;99.90;;;;;;20939457;28;20048;-76
2022/10/25 05:04:43;;;;;;;33.50;10.83;;;10.80;99.90;;;;;;20934162;28;20028;-76
2022/10/25 05:14:44;;;;;;;38.47;11.87;;;10.80;99.90;;;;;;20926572;28;20108;-77
2022/10/25 05:24:45;;;;;;;36.10;11.30;;;10.80;99.90;;;;;;20985690;28;20033;-77
2022/10/25 05:34:46;;;;;;;31.87;11.90;;;10.90;99.90;;;;;;21009373;28;20422;-76
2022/10/25 05:44:47;;;;;;;26.83;9.07;;;10.90;99.90;;;;;;20954827;28;20096;-77
2022/10/25 05:54:47;;;;;;;34.80;10.60;;;10.90;99.90;;;;;;21011039;28;20024;-78
2022/10/25 06:04:48;;;;;;;23.77;9.07;;;10.90;99.90;;;;;;21021481;28;20043;-78
2022/10/25 06:14:49;;;;;;;28.53;9.97;;;10.90;99.90;;;;;;21032084;28;20046;-78
2022/10/25 06:24:50;;;;;;;30.57;9.90;;;11.00;99.90;;;;;;21033328;28;20020;-77
2022/10/25 06:34:50;;;;;;;30.90;10.57;;;11.10;99.90;;;;;;21031218;28;20028;-77
2022/10/25 06:44:51;;;;;;;34.50;11.27;;;11.20;99.90;;;;;;20998403;28;20104;-77
2022/10/25 06:54:52;;;;;;;26.30;11.23;;;11.30;99.90;;;;;;20998418;28;20025;-77
2022/10/25 07:04:53;;;;;;;26.40;11.27;;;11.40;99.90;;;;;;21015238;28;20046;-78
2022/10/25 07:14:53;;;;;;;26.07;10.30;;;11.50;99.90;;;;;;21017888;28;20029;-76
2022/10/25 07:24:54;;;;;;;32.33;11.90;;;11.60;99.90;;;;;;21015823;28;20112;-77
2022/10/25 07:34:55;;;;;;;22.13;9.57;;;11.70;99.90;;;;;;21015940;28;20380;-77
2022/10/25 07:44:56;;;;;;;26.03;10.07;;;11.70;99.90;;;;;;21009723;28;20024;-76
2022/10/25 07:54:56;;;;;;;22.97;9.33;;;11.70;99.90;;;;;;21011970;28;20027;-77
2022/10/25 08:04:57;;;;;;;30.17;9.47;;;11.80;99.90;;;;;;21017079;28;20023;-78
2022/10/25 08:14:58;;;;;;;24.53;9.23;;;12.00;99.90;;;;;;21023137;28;20048;-76
2022/10/25 08:24:59;;;;;;;19.30;9.13;;;12.20;99.90;;;;;;20996309;28;20454;-77
2022/10/25 08:35:00;;;;;;;19.27;9.18;;;12.30;99.90;;;;;;21010514;28;20040;-78
2022/10/25 08:45:16;;;;;;;22.73;8.50;;;12.30;99.90;;;;;;21018675;28;20095;-78
2022/10/25 08:55:27;;;;;;;15.35;7.45;;;12.40;99.90;;;;;;21008059;28;20036;-77
2022/10/25 09:06:05;;;;;;;15.57;7.13;;;12.60;99.90;;;;;;21007316;28;20021;-77
2022/10/25 09:16:15;;;;;;;15.02;7.30;;;12.60;99.90;;;;;;20980508;28;20037;-77
2022/10/25 09:26:29;;;;;;;16.25;7.50;;;12.80;99.90;;;;;;20920537;28;20119;-77
2022/10/25 09:36:43;;;;;;;17.00;6.97;;;13.00;99.90;;;;;;20914490;28;20036;-78
2022/10/25 09:46:52;;;;;;;15.52;6.88;;;13.30;99.90;;;;;;20942458;28;20051;-78
2022/10/25 09:56:53;;;;;;;15.07;6.53;;;13.40;99.90;;;;;;20907103;28;20033;-78
2022/10/25 10:07:02;;;;;;;14.07;7.00;;;13.60;99.90;;;;;;20944045;28;20037;-78
2022/10/25 10:17:05;;;;;;;13.25;5.68;;;13.70;99.90;;;;;;20958624;28;20037;-78
2022/10/25 10:27:08;;;;;;;11.27;6.20;;;14.00;99.90;;;;;;20913938;28;20029;-78
2022/10/25 10:37:22;;;;;;;56.00;18.75;;;14.00;99.90;;;;;;20930320;28;20033;-77
2022/10/25 10:47:27;;;;;;;13.52;6.22;;;14.50;99.90;;;;;;20892866;28;20045;-78
2022/10/25 10:57:33;;;;;;;14.55;5.10;;;14.70;99.90;;;;;;20919166;28;20064;-78
2022/10/25 11:07:34;;;;;;;9.40;4.90;;;14.80;99.90;;;;;;20925224;28;20186;-78
2022/10/25 11:17:41;;;;;;;13.27;4.97;;;14.70;99.90;;;;;;20943696;28;20411;-78
2022/10/25 11:27:51;;;;;;;14.88;5.35;;;14.90;99.90;;;;;;20954948;28;20036;-77
2022/10/25 11:38:12;;;;;;;8.30;4.32;;;15.60;99.90;;;;;;20982055;28;20079;-77
2022/10/25 11:48:41;;;;;;;10.83;4.10;;;16.00;99.90;;;;;;21003825;28;20487;-77
2022/10/25 11:58:47;;;;;;;7.53;3.83;;;16.90;99.90;;;;;;20982505;28;20112;-76
2022/10/25 12:09:10;;;;;;;9.55;2.72;;;16.40;99.90;;;;;;20988590;28;20113;-77
2022/10/25 12:19:11;;;;;;;7.82;3.63;;;17.60;99.90;;;;;;20961704;28;20028;-76
2022/10/25 12:29:20;;;;;;;7.70;3.53;;;17.90;99.90;;;;;;20932355;28;20514;-77
2022/10/25 12:39:39;;;;;;;6.65;2.90;;;17.80;99.90;;;;;;20926341;28;20049;-77
2022/10/25 12:49:49;;;;;;;5.05;2.78;;;18.30;99.90;;;;;;20929441;28;20028;-78
2022/10/25 13:00:07;;;;;;;7.43;2.88;;;18.70;99.90;;;;;;20937239;28;20507;-78
2022/10/25 13:10:20;;;;;;;4.93;2.30;;;19.80;99.90;;;;;;20975345;28;20071;-77
2022/10/25 13:20:22;;;;;;;7.43;2.65;;;20.00;99.90;;;;;;20969222;28;20028;-77
2022/10/25 13:30:29;;;;;;;7.70;2.53;;;20.40;99.90;;;;;;20928982;28;20376;-77
2022/10/25 13:40:30;;;;;;;9.25;2.65;;;20.50;99.90;;;;;;20922160;28;20120;-77
2022/10/25 13:50:58;;;;;;;5.50;2.25;;;21.00;99.90;;;;;;20922027;28;20021;-77
2022/10/25 14:01:14;;;;;;;5.53;1.90;;;21.30;99.90;;;;;;20908141;28;20044;-77
2022/10/25 14:12:01;;;;;;;7.30;2.08;;;21.00;99.90;;;;;;20895735;28;20154;-77
2022/10/25 14:22:03;;;;;;;6.57;2.30;;;20.50;99.90;;;;;;20917785;28;20147;-77
2022/10/25 14:32:12;;;;;;;3.85;2.08;;;19.60;99.90;;;;;;20925972;28;20041;-78
2022/10/25 14:42:16;;;;;;;5.88;2.78;;;19.60;99.90;;;;;;20915279;28;20029;-77
2022/10/25 14:52:17;;;;;;;5.88;2.13;;;18.20;99.90;;;;;;20975038;28;20119;-77
2022/10/25 15:02:23;;;;;;;7.50;2.67;;;17.80;99.90;;;;;;21085044;28;20058;-77
2022/10/25 15:12:32;;;;;;;9.35;2.90;;;17.10;99.90;;;;;;21041926;28;20105;-77
2022/10/25 15:22:39;;;;;;;8.05;2.88;;;16.90;99.90;;;;;;21013507;28;20032;-77
2022/10/25 15:32:39;;;;;;;6.45;2.83;;;16.60;99.90;;;;;;20977695;28;20407;-77
2022/10/25 15:42:40;;;;;;;7.90;2.63;;;16.30;99.90;;;;;;20998178;28;20093;-76
2022/10/25 15:52:42;;;;;;;6.43;3.00;;;15.90;99.90;;;;;;20996283;28;20402;-76
2022/10/25 16:02:43;;;;;;;7.72;3.38;;;15.20;99.90;;;;;;20996738;28;20020;-76
2022/10/25 16:12:48;;;;;;;11.63;3.10;;;15.00;99.90;;;;;;20997794;28;20037;-76
2022/10/25 16:22:50;;;;;;;8.85;3.13;;;15.10;99.90;;;;;;20999773;28;20044;-76
2022/10/25 16:32:51;;;;;;;15.43;3.05;;;14.80;99.90;;;;;;20994855;28;20033;-76
2022/10/25 16:42:53;;;;;;;11.23;2.95;;;14.30;99.90;;;;;;20982272;28;20081;-76
2022/10/25 16:52:59;;;;;;;10.32;3.80;;;14.30;99.90;;;;;;21029499;28;20051;-76
2022/10/25 17:03:02;;;;;;;10.50;2.58;;;14.20;99.90;;;;;;20990717;28;20078;-76
2022/10/25 17:13:10;;;;;;;8.57;2.58;;;13.90;99.90;;;;;;20991197;28;20375;-76
2022/10/25 17:23:10;;;;;;;7.30;2.00;;;13.70;99.90;;;;;;20992417;28;20044;-77
2022/10/25 17:33:11;;;;;;;8.13;2.60;;;13.60;99.90;;;;;;20990462;28;20028;-75
2022/10/25 17:43:14;;;;;;;5.53;2.67;;;13.60;99.90;;;;;;20990350;28;20028;-76
2022/10/25 17:53:14;;;;;;;5.50;2.55;;;13.50;99.90;;;;;;20989889;28;20688;-76
2022/10/25 18:03:15;;;;;;;7.57;2.53;;;13.40;99.90;;;;;;20955542;28;20031;-75
2022/10/25 18:13:17;;;;;;;4.93;2.73;;;13.40;99.90;;;;;;21052720;28;20056;-76
2022/10/25 18:23:18;;;;;;;13.07;2.42;;;13.30;99.90;;;;;;21088917;28;20482;-75
2022/10/25 18:33:22;;;;;;;2.50;1.93;;;13.30;99.90;;;;;;21087815;28;20040;-76
2022/10/25 18:43:24;;;;;;;4.75;1.85;;;13.30;99.90;;;;;;21068664;28;20032;-76
2022/10/25 18:53:25;;;;;;;11.30;2.13;;;13.00;99.90;;;;;;21086561;28;20063;-75
2022/10/25 19:03:26;;;;;;;5.10;2.00;;;13.00;99.90;;;;;;21067278;28;20035;-75
2022/10/25 19:13:29;;;;;;;7.20;2.20;;;13.00;99.90;;;;;;21084654;28;20405;-75
2022/10/25 19:23:32;;;;;;;7.90;1.97;;;13.00;99.90;;;;;;21083916;28;20070;-75
2022/10/25 19:33:33;;;;;;;6.35;1.83;;;13.00;99.90;;;;;;20968591;28;20033;-76
2022/10/25 19:43:35;;;;;;;4.50;1.75;;;13.10;99.90;;;;;;20917018;28;20041;-76
2022/10/25 19:53:36;;;;;;;4.40;2.83;;;13.00;99.90;;;;;;20915377;28;20036;-76
2022/10/25 20:03:38;;;;;;;7.23;2.80;;;12.90;99.90;;;;;;20925981;28;20025;-76
2022/10/25 20:13:39;;;;;;;9.95;2.80;;;12.80;99.90;;;;;;20935275;28;20036;-76
2022/10/25 20:23:41;;;;;;;;;;;12.70;99.90;;;;;;20952898;28;20025;-75
2022/10/25 20:33:42;;;;;;;9.47;5.00;;;12.70;99.90;;;;;;20951124;28;19912;-75
2022/10/25 20:43:48;;;;;;;14.53;5.17;;;12.50;99.90;;;;;;20951066;28;20505;-76
2022/10/25 20:53:49;;;;;;;14.10;4.80;;;12.40;99.90;;;;;;20949721;28;20499;-75
2022/10/25 21:03:50;;;;;;;6.60;3.80;;;12.40;99.90;;;;;;20949163;28;20051;-75
2022/10/25 21:13:51;;;;;;;13.23;5.63;;;12.40;99.90;;;;;;20973326;28;20457;-75
2022/10/25 21:23:56;;;;;;;13.47;4.83;;;12.50;99.90;;;;;;20992676;28;20030;-76
2022/10/25 21:33:59;;;;;;;9.20;4.68;;;12.50;99.90;;;;;;20990421;28;20111;-75
2022/10/25 21:44:00;;;;;;;5.70;4.00;;;12.50;99.90;;;;;;20989512;28;20032;-75
2022/10/25 21:54:02;;;;;;;9.87;4.43;;;12.50;99.90;;;;;;20990870;28;20036;-75
2022/10/25 22:04:03;;;;;;;9.30;4.70;;;12.50;99.90;;;;;;20989952;28;20034;-75
2022/10/25 22:14:07;;;;;;;9.50;4.53;;;12.50;99.90;;;;;;20972638;28;20107;-75
2022/10/25 22:24:09;;;;;;;13.40;5.13;;;12.60;99.90;;;;;;20971964;28;20032;-75
2022/10/25 22:34:10;;;;;;;13.25;4.15;;;12.60;99.90;;;;;;20988855;28;20032;-75
2022/10/25 22:44:11;;;;;;;10.27;4.27;;;12.60;99.90;;;;;;20969966;28;20029;-75
2022/10/25 22:54:12;;;;;;;6.97;3.97;;;12.60;99.90;;;;;;20997260;28;20087;-75
2022/10/25 23:04:12;;;;;;;7.00;4.37;;;12.60;99.90;;;;;;21002052;28;20028;-75
2022/10/25 23:14:13;;;;;;;11.07;4.33;;;12.70;99.90;;;;;;21002705;28;20494;-75
2022/10/25 23:24:14;;;;;;;10.60;4.77;;;12.60;99.90;;;;;;21001463;28;20044;-75
2022/10/25 23:34:15;;;;;;;10.67;4.67;;;12.60;99.90;;;;;;21000232;28;20034;-75
2022/10/25 23:44:16;;;;;;;11.53;5.03;;;12.50;99.90;;;;;;21020716;28;20036;-75
2022/10/25 23:54:17;;;;;;;8.17;5.00;;;12.50;99.90;;;;;;21081688;28;20081;-76
